createdAt,value
2017-06-19T08:00:54.357Z,23.10
2017-06-19T08:03:22.292Z,22.90
2017-06-19T08:05:49.826Z,22.80
2017-06-19T08:08:16.921Z,22.80
2017-06-19T08:10:44.245Z,23.00
2017-06-19T08:13:11.319Z,22.90
2017-06-19T08:15:38.401Z,22.90
2017-06-19T08:18:05.517Z,22.90
2017-06-19T08:20:33.356Z,22.90
2017-06-19T08:23:00.567Z,22.90
2017-06-19T08:25:27.638Z,23.10
2017-06-19T08:27:54.868Z,23.00
2017-06-19T08:30:21.985Z,23.10
2017-06-19T08:32:49.089Z,23.10
2017-06-19T08:35:16.229Z,23.10
2017-06-19T08:37:43.380Z,23.10
2017-06-19T08:40:10.704Z,23.10
2017-06-19T08:42:37.775Z,23.20
2017-06-19T08:45:04.853Z,23.20
2017-06-19T08:47:32.741Z,23.20
2017-06-19T08:49:59.814Z,23.20
2017-06-19T08:52:27.152Z,23.20
2017-06-19T08:54:54.230Z,23.20
2017-06-19T08:57:21.311Z,23.20
2017-06-19T08:59:49.229Z,23.20
2017-06-19T09:02:16.306Z,23.20
2017-06-19T09:04:43.632Z,23.20
2017-06-19T09:07:10.781Z,23.20
2017-06-19T09:09:37.865Z,23.20
2017-06-19T09:12:05.771Z,23.30
2017-06-19T09:14:32.849Z,23.20
2017-06-19T09:16:59.986Z,23.20
2017-06-19T09:19:27.135Z,23.30
2017-06-19T09:21:54.395Z,23.30
2017-06-19T09:24:21.542Z,23.40
2017-06-19T09:26:48.621Z,23.40
2017-06-19T09:29:15.745Z,23.40
2017-06-19T09:31:42.822Z,23.40
2017-06-19T09:34:10.006Z,23.40
2017-06-19T09:36:37.120Z,23.40
2017-06-19T09:39:04.383Z,23.40
2017-06-19T09:41:31.562Z,23.40
2017-06-19T09:43:58.647Z,23.40
2017-06-19T09:46:26.707Z,23.60
2017-06-19T09:48:53.889Z,23.50
2017-06-19T09:51:21.246Z,23.50
2017-06-19T09:53:48.598Z,23.50
2017-06-19T09:56:16.150Z,23.50
2017-06-19T09:58:43.307Z,23.50
2017-06-19T10:01:10.683Z,23.50
2017-06-19T10:03:38.032Z,23.50
2017-06-19T10:06:05.281Z,23.40
2017-06-19T10:08:33.049Z,23.30
2017-06-19T10:11:00.142Z,23.30
2017-06-19T10:13:27.538Z,23.30
2017-06-19T10:15:54.690Z,23.30
2017-06-19T10:18:28.674Z,23.20
2017-06-19T10:20:55.867Z,23.20
